createdAt,value
2023-02-05T00:00:48.769Z,99.99
2023-02-05T00:01:50.946Z,99.99
2023-02-05T00:02:49.206Z,99.99
2023-02-05T00:03:48.470Z,99.99
2023-02-05T00:04:48.721Z,99.99
2023-02-05T00:05:49.060Z,99.99
2023-02-05T00:06:49.344Z,99.99
2023-02-05T00:07:51.636Z,99.99
2023-02-05T00:08:49.988Z,99.99
2023-02-05T00:09:50.316Z,99.99
2023-02-05T00:10:50.535Z,99.99
2023-02-05T00:11:52.757Z,99.99
2023-02-05T00:12:51.018Z,99.99
2023-02-05T00:13:51.435Z,99.99
2023-02-05T00:14:51.723Z,99.99
2023-02-05T00:15:53.029Z,99.99
2023-02-05T00:16:54.580Z,99.99
2023-02-05T00:17:54.244Z,99.99
2023-02-05T00:18:56.152Z,99.99
2023-02-05T00:19:55.662Z,99.99
2023-02-05T00:20:53.704Z,99.99
2023-02-05T00:21:57.781Z,99.99
2023-02-05T00:22:54.639Z,99.99
2023-02-05T00:23:58.804Z,99.99
2023-02-05T00:24:55.196Z,99.99
2023-02-05T00:26:04.307Z,99.99
2023-02-05T00:26:56.721Z,99.99
2023-02-05T00:27:55.074Z,99.99
2023-02-05T00:28:55.412Z,99.99
2023-02-05T00:29:55.712Z,99.99
2023-02-05T00:30:57.017Z,99.99
2023-02-05T00:31:56.346Z,99.99
2023-02-05T00:32:56.714Z,99.99
2023-02-05T00:33:56.961Z,99.99
2023-02-05T00:34:57.255Z,99.99
2023-02-05T00:35:59.473Z,99.99
2023-02-05T00:36:59.684Z,99.99
2023-02-05T00:37:58.009Z,99.99
2023-02-05T00:38:58.232Z,99.99
2023-02-05T00:39:58.473Z,99.99
2023-02-05T00:40:58.935Z,99.99
2023-02-05T00:41:58.846Z,99.99
2023-02-05T00:42:59.296Z,99.99
2023-02-05T00:43:59.262Z,99.99
2023-02-05T00:44:59.602Z,99.99
2023-02-05T00:46:00.042Z,99.99
2023-02-05T00:47:00.720Z,99.99
2023-02-05T00:48:01.648Z,99.99
2023-02-05T00:49:01.053Z,99.99
2023-02-05T00:50:01.502Z,99.99
2023-02-05T00:51:01.869Z,99.99
2023-02-05T00:52:02.180Z,99.99
2023-02-05T00:53:02.560Z,99.99
2023-02-05T00:54:02.865Z,99.99
2023-02-05T00:55:03.208Z,99.99
2023-02-05T00:56:03.595Z,99.99
2023-02-05T00:57:03.708Z,99.99
2023-02-05T00:58:03.965Z,99.99
2023-02-05T00:59:05.309Z,99.99
2023-02-05T01:00:05.154Z,99.99
2023-02-05T01:01:05.921Z,99.99
2023-02-05T01:02:05.227Z,99.99
2023-02-05T01:03:05.563Z,99.99
2023-02-05T01:04:07.001Z,99.99
2023-02-05T01:05:07.310Z,99.99
2023-02-05T01:06:07.761Z,99.99
2023-02-05T01:07:08.123Z,99.99
2023-02-05T01:08:07.444Z,99.99
2023-02-05T01:09:07.834Z,99.99
2023-02-05T01:10:08.134Z,99.99
2023-02-05T01:11:08.477Z,99.99
2023-02-05T01:12:08.786Z,99.99
2023-02-05T01:13:09.233Z,99.99
2023-02-05T01:14:10.544Z,99.99
2023-02-05T01:15:09.848Z,99.99
2023-02-05T01:16:10.234Z,99.99
2023-02-05T01:17:10.562Z,99.16
2023-02-05T01:18:11.793Z,97.34
2023-02-05T01:19:13.070Z,95.98
2023-02-05T01:22:35.131Z,92.03
2023-02-05T01:23:26.197Z,91.20
2023-02-05T01:24:26.184Z,90.54
2023-02-05T01:25:27.650Z,90.01
2023-02-05T01:26:27.040Z,90.01
2023-02-05T01:27:28.872Z,90.01
2023-02-05T01:28:27.680Z,89.50
2023-02-05T01:29:29.419Z,88.98
2023-02-05T01:30:28.344Z,88.73
2023-02-05T01:31:28.690Z,88.42
2023-02-05T01:32:29.052Z,88.31
2023-02-05T01:33:29.306Z,87.89
2023-02-05T01:34:29.991Z,87.99
2023-02-05T01:35:35.696Z,88.10
2023-02-05T01:36:35.771Z,87.68
2023-02-05T01:37:32.944Z,87.58
2023-02-05T01:38:43.903Z,87.68
2023-02-05T01:39:35.478Z,87.68
2023-02-05T01:40:32.724Z,87.48
2023-02-05T01:41:38.199Z,87.27
2023-02-05T01:42:44.084Z,87.27
2023-02-05T01:43:45.089Z,87.37
2023-02-05T01:44:31.971Z,87.37
2023-02-05T01:45:50.389Z,87.16
2023-02-05T01:46:36.759Z,87.27
2023-02-05T01:47:47.164Z,87.16
2023-02-05T01:48:32.665Z,87.27
2023-02-05T01:49:33.665Z,87.37
2023-02-05T01:50:32.951Z,87.48
2023-02-05T01:51:33.480Z,87.48
2023-02-05T01:52:33.384Z,87.62
2023-02-05T01:53:33.670Z,87.41
2023-02-05T01:54:35.973Z,87.37
2023-02-05T01:55:34.852Z,87.27
2023-02-05T01:56:35.336Z,87.52
2023-02-05T01:57:35.681Z,87.73
2023-02-05T01:58:36.102Z,87.62
2023-02-05T01:59:36.311Z,87.41
2023-02-05T02:00:35.619Z,87.06
2023-02-05T02:01:38.369Z,86.65
2023-02-05T02:02:36.447Z,86.12
2023-02-05T02:03:36.267Z,86.12
2023-02-05T02:04:36.557Z,86.22
2023-02-05T02:05:36.872Z,86.02
2023-02-05T02:06:39.143Z,86.12
2023-02-05T02:07:37.463Z,86.02
2023-02-05T02:08:37.756Z,86.12
2023-02-05T02:09:39.982Z,86.12
2023-02-05T02:10:40.261Z,85.91
2023-02-05T02:11:38.622Z,85.91
2023-02-05T02:12:38.997Z,85.91
2023-02-05T02:13:39.458Z,86.33
2023-02-05T02:14:40.760Z,86.33
2023-02-05T02:15:40.017Z,86.33
2023-02-05T02:16:40.782Z,86.22
2023-02-05T02:17:40.513Z,86.43
2023-02-05T02:18:40.779Z,86.65
2023-02-05T02:19:41.277Z,86.43
2023-02-05T02:20:41.083Z,86.43
2023-02-05T02:21:41.370Z,86.43
2023-02-05T02:22:41.588Z,86.33
2023-02-05T02:23:42.110Z,86.12
2023-02-05T02:24:42.840Z,85.91
2023-02-05T02:25:43.050Z,85.91
2023-02-05T02:26:42.302Z,85.81
2023-02-05T02:27:42.586Z,85.71
2023-02-05T02:28:42.881Z,85.81
2023-02-05T02:29:43.141Z,86.02
2023-02-05T02:30:44.949Z,86.12
2023-02-05T02:31:44.722Z,85.81
2023-02-05T02:32:43.947Z,85.60
2023-02-05T02:33:44.169Z,85.29
2023-02-05T02:34:45.904Z,85.19
2023-02-05T02:35:45.734Z,84.83
2023-02-05T02:36:45.053Z,85.04
2023-02-05T02:37:45.289Z,85.50
2023-02-05T02:38:46.562Z,85.50
2023-02-05T02:39:45.788Z,85.39
2023-02-05T02:40:46.038Z,85.50
2023-02-05T02:41:46.386Z,85.60
2023-02-05T02:42:46.592Z,85.81
2023-02-05T02:43:46.850Z,85.81
2023-02-05T02:44:48.028Z,85.91
2023-02-05T02:45:47.254Z,85.71
2023-02-05T02:46:48.508Z,85.81
2023-02-05T02:47:47.787Z,86.02
2023-02-05T02:48:48.053Z,85.81
2023-02-05T02:49:49.276Z,86.22
2023-02-05T02:50:48.664Z,86.12
2023-02-05T02:51:48.917Z,86.12
2023-02-05T02:52:49.258Z,86.12
2023-02-05T02:53:49.496Z,86.22
2023-02-05T02:54:49.797Z,86.12
2023-02-05T02:55:51.129Z,85.91
2023-02-05T02:56:50.349Z,85.81
2023-02-05T02:57:50.530Z,85.91
2023-02-05T02:58:50.845Z,86.12
2023-02-05T02:59:51.107Z,86.22
2023-02-05T03:00:51.511Z,86.22
2023-02-05T03:01:53.933Z,85.91
2023-02-05T03:02:51.894Z,85.91
2023-02-05T03:03:52.085Z,85.60
2023-02-05T03:04:54.294Z,85.39
2023-02-05T03:05:52.542Z,85.25
2023-02-05T03:06:53.498Z,84.94
2023-02-05T03:07:52.759Z,84.94
2023-02-05T03:08:53.987Z,84.83
2023-02-05T03:09:53.390Z,84.42
2023-02-05T03:10:53.744Z,84.42
2023-02-05T03:11:55.426Z,84.63
2023-02-05T03:12:55.109Z,84.73
2023-02-05T03:13:54.411Z,84.21
2023-02-05T03:14:55.689Z,84.11
2023-02-05T03:15:55.021Z,84.42
2023-02-05T03:16:56.355Z,84.73
2023-02-05T03:17:56.524Z,84.83
2023-02-05T03:18:56.726Z,84.73
2023-02-05T03:19:57.068Z,84.63
2023-02-05T03:20:57.299Z,84.73
2023-02-05T03:21:57.757Z,84.83
2023-02-05T03:22:57.148Z,85.04
2023-02-05T03:23:57.431Z,85.25
2023-02-05T03:24:57.762Z,85.04
2023-02-05T03:25:58.760Z,84.94
2023-02-05T03:26:58.062Z,85.25
2023-02-05T03:27:58.409Z,85.14
2023-02-05T03:28:58.669Z,85.08
2023-02-05T03:29:59.095Z,85.04
2023-02-05T03:30:59.548Z,84.83
2023-02-05T03:32:00.031Z,85.25
2023-02-05T03:33:00.168Z,85.71
2023-02-05T03:34:00.297Z,85.81
2023-02-05T03:35:01.458Z,85.81
2023-02-05T03:36:00.335Z,85.91
2023-02-05T03:37:01.731Z,85.71
2023-02-05T03:38:00.873Z,85.60
2023-02-05T03:39:01.298Z,85.60
2023-02-05T03:40:01.577Z,85.60
2023-02-05T03:41:02.121Z,86.43
2023-02-05T03:42:02.285Z,85.81
2023-02-05T03:43:04.066Z,86.33
2023-02-05T03:44:04.392Z,86.65
2023-02-05T03:45:03.689Z,86.96
2023-02-05T03:46:03.121Z,86.43
2023-02-05T03:47:04.044Z,86.65
2023-02-05T03:48:04.560Z,86.33
2023-02-05T03:49:04.809Z,85.81
2023-02-05T03:50:05.479Z,85.81
2023-02-05T03:51:05.549Z,85.81
2023-02-05T03:52:05.580Z,86.22
2023-02-05T03:53:05.422Z,85.91
2023-02-05T03:54:05.682Z,85.60
2023-02-05T03:55:05.949Z,85.60
2023-02-05T03:56:06.123Z,86.02
2023-02-05T03:57:06.461Z,86.12
2023-02-05T03:58:06.776Z,86.65
2023-02-05T03:59:07.640Z,86.33
2023-02-05T04:00:07.784Z,85.91
2023-02-05T04:01:07.675Z,85.81
2023-02-05T04:02:08.565Z,85.81
2023-02-05T04:03:08.866Z,86.12
2023-02-05T04:04:08.623Z,85.81
2023-02-05T04:05:08.895Z,85.50
2023-02-05T04:06:08.848Z,85.60
2023-02-05T04:07:09.211Z,85.39
2023-02-05T04:08:10.443Z,85.39
2023-02-05T04:09:10.382Z,85.39
2023-02-05T04:10:10.173Z,85.50
2023-02-05T04:11:10.632Z,85.50
2023-02-05T04:12:10.968Z,85.91
2023-02-05T04:13:13.555Z,85.81
2023-02-05T04:14:11.551Z,86.33
2023-02-05T04:15:11.643Z,85.91
2023-02-05T04:16:11.848Z,85.60
2023-02-05T04:17:12.499Z,86.02
2023-02-05T04:18:11.708Z,86.33
2023-02-05T04:19:12.712Z,86.22
2023-02-05T04:20:12.546Z,86.54
2023-02-05T04:21:12.030Z,87.06
2023-02-05T04:22:12.234Z,87.48
2023-02-05T04:23:12.050Z,87.68
2023-02-05T04:24:13.424Z,87.48
2023-02-05T04:25:13.344Z,87.16
2023-02-05T04:26:13.339Z,86.75
2023-02-05T04:27:15.461Z,86.54
2023-02-05T04:28:13.731Z,86.75
2023-02-05T04:29:23.042Z,87.37
2023-02-05T04:30:14.892Z,87.27
2023-02-05T04:31:15.025Z,87.06
2023-02-05T04:32:14.966Z,87.06
2023-02-05T04:33:14.388Z,87.16
2023-02-05T04:34:16.288Z,88.10
2023-02-05T04:35:16.514Z,86.65
2023-02-05T04:36:16.358Z,86.43
2023-02-05T04:37:16.751Z,85.91
2023-02-05T04:38:16.085Z,85.19
2023-02-05T04:39:16.643Z,84.63
2023-02-05T04:40:16.681Z,84.73
2023-02-05T04:41:17.009Z,84.52
2023-02-05T04:42:18.290Z,84.63
2023-02-05T04:43:18.730Z,84.63
2023-02-05T04:44:18.149Z,84.94
2023-02-05T04:45:18.754Z,85.25
2023-02-05T04:46:19.356Z,84.73
2023-02-05T04:47:18.953Z,85.04
2023-02-05T04:48:21.196Z,85.35
2023-02-05T04:49:19.243Z,85.56
2023-02-05T04:50:20.442Z,85.46
2023-02-05T04:51:21.098Z,85.77
2023-02-05T04:52:20.040Z,86.19
2023-02-05T04:53:20.016Z,86.71
2023-02-05T04:54:20.582Z,86.81
2023-02-05T04:55:22.507Z,86.71
2023-02-05T04:56:21.047Z,85.98
2023-02-05T04:57:21.816Z,86.08
2023-02-05T04:58:22.213Z,85.98
2023-02-05T04:59:21.683Z,86.29
2023-02-05T05:00:22.123Z,86.19
2023-02-05T05:01:22.659Z,85.46
2023-02-05T05:02:22.590Z,85.14
2023-02-05T05:03:23.110Z,85.14
2023-02-05T05:04:23.147Z,85.14
2023-02-05T05:05:24.121Z,84.83
2023-02-05T05:06:24.533Z,84.83
2023-02-05T05:07:24.766Z,85.04
2023-02-05T05:08:25.411Z,85.25
2023-02-05T05:09:24.395Z,85.25
2023-02-05T05:10:25.292Z,85.67
2023-02-05T05:11:24.297Z,85.56
2023-02-05T05:12:24.814Z,85.35
2023-02-05T05:13:24.890Z,85.35
2023-02-05T05:14:24.857Z,85.67
2023-02-05T05:15:25.224Z,85.25
2023-02-05T05:16:26.091Z,85.77
2023-02-05T05:17:25.716Z,85.88
2023-02-05T05:18:25.726Z,86.50
2023-02-05T05:19:27.107Z,87.02
2023-02-05T05:20:26.043Z,86.29
2023-02-05T05:21:27.394Z,85.88
2023-02-05T05:22:26.849Z,85.25
2023-02-05T05:23:27.280Z,85.67
2023-02-05T05:24:28.717Z,86.08
2023-02-05T05:25:28.363Z,86.29
2023-02-05T05:26:29.158Z,85.88
2023-02-05T05:27:28.505Z,85.35
2023-02-05T05:28:28.819Z,85.25
2023-02-05T05:29:29.182Z,85.04
2023-02-05T05:30:31.262Z,84.94
2023-02-05T05:31:29.602Z,84.73
2023-02-05T05:32:29.959Z,84.90
2023-02-05T05:33:30.463Z,84.83
2023-02-05T05:34:32.412Z,85.00
2023-02-05T05:35:30.717Z,85.04
2023-02-05T05:36:32.328Z,85.11
2023-02-05T05:37:32.069Z,85.21
2023-02-05T05:38:31.439Z,85.00
2023-02-05T05:39:31.949Z,85.21
2023-02-05T05:40:33.250Z,85.31
2023-02-05T05:41:32.814Z,85.52
2023-02-05T05:42:32.747Z,85.56
2023-02-05T05:43:33.387Z,85.67
2023-02-05T05:44:33.356Z,85.88
2023-02-05T05:45:33.425Z,86.60
2023-02-05T05:46:34.572Z,86.50
2023-02-05T05:47:33.497Z,86.25
2023-02-05T05:48:33.931Z,86.67
2023-02-05T05:49:33.968Z,87.19
2023-02-05T05:50:34.198Z,86.88
2023-02-05T05:51:34.188Z,86.98
2023-02-05T05:52:34.112Z,86.77
2023-02-05T05:53:34.600Z,86.57
2023-02-05T05:54:34.390Z,86.57
2023-02-05T05:55:36.159Z,86.71
2023-02-05T05:56:35.382Z,86.81
2023-02-05T05:57:35.819Z,87.12
2023-02-05T05:58:35.364Z,87.85
2023-02-05T05:59:36.007Z,88.06
2023-02-05T06:00:35.937Z,88.17
2023-02-05T06:01:37.527Z,88.37
2023-02-05T06:02:36.476Z,89.20
2023-02-05T06:03:36.876Z,89.20
2023-02-05T06:04:36.897Z,89.20
2023-02-05T06:05:37.472Z,89.31
2023-02-05T06:06:39.635Z,89.31
2023-02-05T06:07:37.662Z,89.76
2023-02-05T06:08:38.327Z,90.39
2023-02-05T06:09:37.390Z,90.50
2023-02-05T06:10:37.272Z,90.60
2023-02-05T06:11:38.999Z,90.70
2023-02-05T06:12:38.592Z,90.91
2023-02-05T06:13:38.046Z,91.43
2023-02-05T06:14:38.196Z,91.75
2023-02-05T06:15:39.140Z,91.75
2023-02-05T06:16:38.569Z,91.85
2023-02-05T06:17:38.908Z,92.06
2023-02-05T06:18:39.227Z,92.06
2023-02-05T06:19:39.542Z,91.75
2023-02-05T06:20:39.872Z,91.96
2023-02-05T06:21:40.269Z,92.06
2023-02-05T06:22:42.581Z,92.37
2023-02-05T06:23:40.931Z,92.58
2023-02-05T06:24:41.581Z,92.79
2023-02-05T06:25:41.568Z,92.89
2023-02-05T06:26:41.530Z,93.20
2023-02-05T06:27:42.227Z,93.20
2023-02-05T06:28:44.501Z,93.41
2023-02-05T06:29:44.535Z,93.83
2023-02-05T06:30:42.555Z,93.93
2023-02-05T06:31:42.816Z,93.93
2023-02-05T06:32:45.129Z,94.14
2023-02-05T06:33:44.567Z,93.98
2023-02-05T06:34:43.899Z,94.08
2023-02-05T06:35:44.800Z,94.08
2023-02-05T06:36:45.840Z,94.18
2023-02-05T06:37:47.789Z,94.29
2023-02-05T06:38:44.428Z,94.08
2023-02-05T06:39:44.587Z,93.87
2023-02-05T06:40:44.859Z,93.77
2023-02-05T06:41:45.563Z,93.56
2023-02-05T06:42:45.325Z,93.56
2023-02-05T06:43:46.563Z,93.87
2023-02-05T06:44:45.432Z,93.46
2023-02-05T06:45:45.552Z,93.35
2023-02-05T06:46:45.503Z,93.35
2023-02-05T06:47:45.928Z,93.46
2023-02-05T06:48:46.396Z,93.87
2023-02-05T06:49:46.009Z,93.24
2023-02-05T06:50:46.132Z,92.58
2023-02-05T06:51:47.731Z,93.10
2023-02-05T06:52:49.106Z,93.31
2023-02-05T06:53:46.791Z,93.10
2023-02-05T06:54:46.997Z,92.99
2023-02-05T06:55:46.988Z,93.20
2023-02-05T06:56:48.136Z,93.41
2023-02-05T06:57:48.051Z,93.41
2023-02-05T06:58:47.516Z,93.10
2023-02-05T06:59:48.993Z,93.20
2023-02-05T07:00:49.125Z,93.62
2023-02-05T07:01:49.043Z,92.68
2023-02-05T07:02:48.575Z,92.99
2023-02-05T07:03:48.648Z,93.20
2023-02-05T07:04:48.833Z,93.83
2023-02-05T07:05:48.842Z,93.73
2023-02-05T07:06:50.088Z,93.05
2023-02-05T07:07:49.939Z,93.16
2023-02-05T07:08:50.727Z,92.85
2023-02-05T07:09:50.620Z,92.54
2023-02-05T07:10:50.454Z,91.75
2023-02-05T07:11:50.386Z,92.02
2023-02-05T07:12:50.915Z,92.43
2023-02-05T07:13:50.945Z,92.54
2023-02-05T07:14:52.421Z,92.54
2023-02-05T07:15:51.843Z,92.64
2023-02-05T07:16:52.777Z,92.33
2023-02-05T07:17:52.284Z,92.33
2023-02-05T07:18:52.458Z,92.64
2023-02-05T07:19:52.706Z,92.54
2023-02-05T07:20:56.449Z,92.64
2023-02-05T07:21:53.116Z,92.95
2023-02-05T07:22:53.038Z,92.74
2023-02-05T07:23:53.617Z,91.91
2023-02-05T07:24:53.818Z,92.22
2023-02-05T07:25:54.256Z,92.33
2023-02-05T07:26:55.300Z,92.33
2023-02-05T07:27:54.223Z,91.91
2023-02-05T07:28:54.993Z,92.02
2023-02-05T07:29:54.313Z,91.39
2023-02-05T07:30:54.977Z,91.28
2023-02-05T07:31:55.222Z,91.91
2023-02-05T07:32:55.369Z,92.02
2023-02-05T07:33:55.690Z,92.12
2023-02-05T07:34:55.547Z,92.43
2023-02-05T07:35:55.450Z,91.91
2023-02-05T07:36:57.876Z,91.91
2023-02-05T07:37:56.578Z,91.81
2023-02-05T07:38:56.642Z,91.71
2023-02-05T07:39:56.741Z,91.60
2023-02-05T07:40:57.102Z,91.60
2023-02-05T07:41:56.991Z,91.91
2023-02-05T07:42:58.691Z,92.22
2023-02-05T07:43:57.979Z,91.91
2023-02-05T07:44:58.616Z,91.91
2023-02-05T07:45:58.607Z,92.12
2023-02-05T07:46:58.120Z,92.43
2023-02-05T07:47:59.047Z,92.49
2023-02-05T07:48:58.428Z,92.60
2023-02-05T07:49:58.811Z,93.12
2023-02-05T07:51:00.394Z,93.23
2023-02-05T07:51:59.325Z,93.33
2023-02-05T07:53:00.622Z,93.33
2023-02-05T07:54:00.103Z,93.74
2023-02-05T07:54:59.938Z,93.74
2023-02-05T07:56:00.252Z,93.79
2023-02-05T07:57:00.632Z,94.31
2023-02-05T07:58:02.023Z,94.41
2023-02-05T07:59:01.460Z,94.72
2023-02-05T08:00:01.649Z,94.82
2023-02-05T08:01:01.544Z,94.51
2023-02-05T08:02:02.873Z,94.62
2023-02-05T08:03:02.148Z,94.20
2023-02-05T08:04:02.691Z,94.66
2023-02-05T08:05:02.659Z,95.18
2023-02-05T08:06:03.006Z,95.81
2023-02-05T08:07:04.032Z,95.97
2023-02-05T08:08:03.528Z,96.28
2023-02-05T08:09:03.421Z,96.91
2023-02-05T08:10:03.874Z,97.16
2023-02-05T08:11:05.112Z,97.47
2023-02-05T08:12:04.937Z,98.52
2023-02-05T08:13:04.852Z,98.93
2023-02-05T08:14:05.564Z,99.35
2023-02-05T08:15:05.443Z,99.99
2023-02-05T08:16:05.900Z,99.98
2023-02-05T08:17:05.738Z,99.76
2023-02-05T08:18:06.215Z,99.76
2023-02-05T08:19:06.116Z,99.99
2023-02-05T08:20:06.387Z,99.99
2023-02-05T08:21:07.727Z,99.99
2023-02-05T08:22:07.363Z,99.99
2023-02-05T08:23:07.286Z,99.99
2023-02-05T08:24:08.075Z,99.99
2023-02-05T08:25:07.842Z,99.99
2023-02-05T08:26:08.214Z,99.99
2023-02-05T08:27:08.682Z,99.99
2023-02-05T08:28:09.237Z,99.99
2023-02-05T08:29:11.624Z,99.99
2023-02-05T08:30:13.124Z,99.99
2023-02-05T08:31:09.847Z,99.99
2023-02-05T08:32:11.466Z,99.99
2023-02-05T08:33:10.176Z,99.99
2023-02-05T08:34:10.519Z,99.99
2023-02-05T08:35:10.843Z,99.99
2023-02-05T08:36:11.304Z,99.99
2023-02-05T08:37:13.315Z,99.99
2023-02-05T08:38:11.745Z,99.99
2023-02-05T08:39:12.577Z,99.99
2023-02-05T08:40:12.297Z,99.99
2023-02-05T08:41:12.320Z,99.99
2023-02-05T08:44:51.194Z,99.99
2023-02-05T08:45:55.025Z,99.99
2023-02-05T08:46:53.776Z,99.99
2023-02-05T08:47:51.665Z,99.99
2023-02-05T08:48:54.359Z,99.99
2023-02-05T08:49:51.923Z,99.99
2023-02-05T08:50:51.851Z,99.99
2023-02-05T08:54:10.537Z,99.99
2023-02-05T08:55:09.168Z,99.99
2023-02-05T08:56:09.347Z,99.99
2023-02-05T08:57:09.246Z,99.99
2023-02-05T08:58:10.267Z,99.99
2023-02-05T08:59:09.843Z,99.99
2023-02-05T09:00:10.129Z,99.99
2023-02-05T09:01:10.386Z,99.99
2023-02-05T09:02:10.966Z,99.99
2023-02-05T09:03:12.890Z,99.99
2023-02-05T09:04:13.730Z,99.99
2023-02-05T09:05:13.046Z,99.99
2023-02-05T09:14:18.020Z,99.99
2023-02-05T09:15:09.005Z,99.99
2023-02-05T09:16:06.883Z,99.99
2023-02-05T09:17:09.337Z,99.99
2023-02-05T09:18:10.660Z,99.99
2023-02-05T09:19:08.881Z,99.99
2023-02-05T09:20:08.540Z,99.99
2023-02-05T09:21:11.288Z,99.99
2023-02-05T09:22:11.223Z,99.99
2023-02-05T09:23:11.115Z,99.99
2023-02-05T09:24:11.057Z,99.99
2023-02-05T09:25:12.552Z,99.99
2023-02-05T09:26:11.586Z,99.99
2023-02-05T09:27:12.036Z,99.99
2023-02-05T09:28:11.222Z,99.99
2023-02-05T09:29:12.994Z,99.99
2023-02-05T09:30:12.232Z,99.99
2023-02-05T09:31:12.494Z,99.99
2023-02-05T09:32:13.139Z,99.99
2023-02-05T09:33:12.840Z,99.99
2023-02-05T09:34:12.651Z,99.99
2023-02-05T09:35:13.399Z,99.99
2023-02-05T09:36:14.188Z,99.99
2023-02-05T09:37:16.440Z,99.99
2023-02-05T09:38:15.240Z,99.99
2023-02-05T09:39:28.819Z,99.99
2023-02-05T09:40:21.948Z,99.99
2023-02-05T09:41:15.313Z,99.99
2023-02-05T09:42:17.299Z,99.99
2023-02-05T09:43:15.641Z,99.99
2023-02-05T09:44:16.727Z,99.99
2023-02-05T09:45:17.122Z,99.99
2023-02-05T09:46:14.921Z,99.99
2023-02-05T09:47:16.684Z,99.99
2023-02-05T09:48:20.098Z,99.99
2023-02-05T09:49:20.562Z,99.99
2023-02-05T09:52:36.488Z,99.99
2023-02-05T09:53:35.643Z,99.99
2023-02-05T09:54:34.042Z,99.99
2023-02-05T09:55:37.389Z,99.99
2023-02-05T09:56:43.144Z,99.99
2023-02-05T09:57:36.559Z,99.99
2023-02-05T09:58:42.011Z,99.99
2023-02-05T09:59:46.052Z,99.99
2023-02-05T10:00:43.739Z,99.99
2023-02-05T10:01:38.016Z,99.99
2023-02-05T10:02:37.791Z,99.99
2023-02-05T10:03:39.802Z,99.99
2023-02-05T10:04:50.985Z,99.99
2023-02-05T10:05:48.627Z,99.99
2023-02-05T10:06:40.681Z,99.99
2023-02-05T10:07:38.073Z,99.99
2023-02-05T10:08:41.837Z,99.99
2023-02-05T10:09:53.167Z,99.99
2023-02-05T10:10:44.967Z,99.99
2023-02-05T10:11:39.024Z,99.99
2023-02-05T10:12:39.852Z,99.99
2023-02-05T10:15:25.527Z,99.99
2023-02-05T10:22:56.427Z,99.99
2023-02-05T10:23:39.815Z,99.99
2023-02-05T10:24:48.784Z,99.99
2023-02-05T10:25:59.939Z,99.99
2023-02-05T10:26:54.778Z,99.99
2023-02-05T10:36:28.242Z,99.99
2023-02-05T10:40:00.839Z,99.99
2023-02-05T10:43:06.675Z,99.99
2023-02-05T10:51:05.860Z,99.99
2023-02-05T11:03:35.331Z,99.99
2023-02-05T11:15:03.380Z,99.99
2023-02-05T11:15:45.444Z,99.99
2023-02-05T11:16:47.981Z,99.99
2023-02-05T11:17:47.731Z,99.99
2023-02-05T11:18:44.544Z,99.99
2023-02-05T11:19:43.040Z,99.99
2023-02-05T11:20:45.842Z,99.99
2023-02-05T11:21:49.394Z,99.99
2023-02-05T11:22:44.590Z,99.99
2023-02-05T11:23:44.785Z,99.99
2023-02-05T11:24:51.653Z,99.99
2023-02-05T11:25:50.598Z,99.99
2023-02-05T11:26:46.478Z,99.99
2023-02-05T11:27:44.262Z,99.99
2023-02-05T11:28:48.716Z,99.99
2023-02-05T11:29:47.459Z,99.99
2023-02-05T11:30:52.636Z,99.99
2023-02-05T11:31:49.495Z,99.99
2023-02-05T11:32:46.592Z,99.99
2023-02-05T11:33:52.597Z,99.99
2023-02-05T11:34:49.777Z,99.99
2023-02-05T11:35:48.138Z,99.99
2023-02-05T11:36:53.346Z,99.99
2023-02-05T11:37:50.470Z,99.99
2023-02-05T11:38:50.281Z,99.99
2023-02-05T11:39:50.256Z,99.99
2023-02-05T11:40:51.958Z,99.99
2023-02-05T11:41:55.487Z,99.99
2023-02-05T11:42:48.728Z,99.99
2023-02-05T11:43:48.947Z,99.99
2023-02-05T11:44:50.687Z,99.99
2023-02-05T11:45:52.980Z,99.99
2023-02-05T11:46:52.370Z,99.99
2023-02-05T11:47:50.659Z,99.99
2023-02-05T11:48:51.700Z,99.99
2023-02-05T11:49:51.583Z,99.99
2023-02-05T11:50:49.501Z,99.99
2023-02-05T11:51:49.988Z,99.99
2023-02-05T18:37:50.826Z,99.99
2023-02-05T18:38:36.493Z,99.99
2023-02-05T18:39:36.554Z,99.99
2023-02-05T18:40:36.853Z,99.99
2023-02-05T18:41:36.605Z,99.99
2023-02-05T18:42:36.643Z,99.99
2023-02-05T18:43:36.845Z,99.99
2023-02-05T18:44:37.102Z,99.99
2023-02-05T18:45:38.366Z,99.99
2023-02-05T18:46:37.646Z,99.99
2023-02-05T18:47:37.580Z,99.99
2023-02-05T18:48:37.566Z,99.99
2023-02-05T18:49:37.877Z,99.99
2023-02-05T18:50:37.874Z,99.99
2023-02-05T18:51:38.451Z,99.99
2023-02-05T18:52:37.992Z,99.99
2023-02-05T18:53:38.650Z,99.99
2023-02-05T18:54:38.493Z,99.99
2023-02-05T18:55:38.933Z,99.99
2023-02-05T18:56:39.444Z,99.99
2023-02-05T18:57:38.887Z,99.99
2023-02-05T18:58:39.169Z,99.99
2023-02-05T18:59:39.627Z,99.99
2023-02-05T19:00:41.765Z,99.99
2023-02-05T19:01:40.770Z,99.99
2023-02-05T19:02:42.532Z,99.99
2023-02-05T19:03:40.732Z,99.99
2023-02-05T19:04:42.758Z,99.99
2023-02-05T19:05:41.150Z,99.99
2023-02-05T19:06:46.626Z,99.99
2023-02-05T22:11:42.136Z,99.99
2023-02-05T22:12:27.404Z,99.99
2023-02-05T22:13:25.705Z,99.99
2023-02-05T22:14:26.591Z,99.99
2023-02-05T22:15:27.189Z,99.99
2023-02-05T22:16:26.215Z,99.99
2023-02-05T22:17:27.527Z,99.99
2023-02-05T22:18:26.184Z,99.99
2023-02-05T22:19:27.159Z,99.99
2023-02-05T22:20:27.721Z,99.99
2023-02-05T22:21:27.126Z,99.99
2023-02-05T22:22:27.618Z,99.99
2023-02-05T22:23:29.699Z,99.99
2023-02-05T22:24:27.794Z,99.99
2023-02-05T22:25:27.528Z,99.99
2023-02-05T22:26:28.776Z,99.99
2023-02-05T22:27:29.997Z,99.99
2023-02-05T22:28:28.887Z,99.99
2023-02-05T22:29:28.911Z,99.99
2023-02-05T22:30:29.531Z,99.99
2023-02-05T22:31:31.041Z,99.99
2023-02-05T22:32:30.082Z,99.99
2023-02-05T22:33:29.800Z,99.99
2023-02-05T22:34:29.787Z,99.99
2023-02-05T22:35:31.781Z,99.99
2023-02-05T22:36:34.287Z,99.99
2023-02-05T22:37:29.991Z,99.99
2023-02-05T22:38:30.811Z,99.99
2023-02-05T22:39:35.579Z,99.99
2023-02-05T22:40:32.028Z,99.99
2023-02-05T22:41:31.708Z,99.99
2023-02-05T22:42:33.593Z,99.99
2023-02-05T22:43:33.037Z,99.99
2023-02-05T22:44:32.511Z,99.99
2023-02-05T22:45:33.727Z,99.99
2023-02-05T22:46:32.768Z,99.99
2023-02-05T22:47:33.969Z,99.99
2023-02-05T22:48:33.151Z,99.99
2023-02-05T22:49:33.095Z,99.99
2023-02-05T22:50:36.404Z,99.99
2023-02-05T23:22:20.539Z,99.99
2023-02-05T23:23:19.035Z,99.99
2023-02-05T23:24:18.600Z,99.99
2023-02-05T23:25:20.832Z,99.99
2023-02-05T23:26:19.182Z,99.99
2023-02-05T23:27:23.121Z,99.99
2023-02-05T23:28:20.604Z,99.99
2023-02-05T23:29:24.022Z,99.99
2023-02-05T23:44:21.234Z,99.99
2023-02-05T23:45:05.720Z,99.99
2023-02-05T23:46:05.956Z,99.99
2023-02-05T23:47:05.705Z,99.99
2023-02-05T23:48:05.245Z,99.99
2023-02-05T23:49:06.645Z,99.99
2023-02-05T23:50:04.869Z,99.99
2023-02-05T23:51:09.983Z,99.99
2023-02-05T23:52:08.147Z,99.99
2023-02-05T23:53:14.585Z,99.99
2023-02-05T23:54:05.869Z,99.99
2023-02-05T23:55:08.028Z,99.99
2023-02-05T23:56:12.052Z,99.99
2023-02-05T23:57:08.802Z,99.99
2023-02-05T23:58:13.202Z,99.99
2023-02-05T23:59:07.263Z,99.99
